Time;durP1;ratioP1;P1;durP2;ratioP2;P2;SDS_P1;SDS_P2;PMS_P1;PMS_P2;Temp;Humidity;BMP_temperature;BMP_pressure;BME280_temperature;BME280_humidity;BME280_pressure;Samples;Min_cycle;Max_cycle;Signal;HPM_P1;HPM_P2
2024/01/31 00:01:37;;;;;;;4.93;0.70;;;5.80;99.90;;;;;;6124494;23;20378;-90
2024/01/31 00:04:04;;;;;;;1.17;0.38;;;5.70;99.90;;;;;;6150888;23;20061;-90
2024/01/31 00:06:30;;;;;;;0.85;0.43;;;5.70;99.90;;;;;;6099557;23;20579;-90
2024/01/31 00:08:57;;;;;;;5.05;0.65;;;5.80;99.90;;;;;;6125317;23;20010;-90
2024/01/31 00:11:25;;;;;;;4.35;0.95;;;5.80;99.90;;;;;;6126071;23;20036;-90
2024/01/31 00:13:51;;;;;;;1.80;0.40;;;5.80;99.90;;;;;;6125849;23;20016;-90
2024/01/31 00:16:17;;;;;;;1.60;0.52;;;5.80;99.90;;;;;;6101820;23;20009;-90
2024/01/31 00:18:43;;;;;;;1.13;0.57;;;5.80;99.90;;;;;;6102663;23;20009;-89
2024/01/31 00:21:09;;;;;;;2.75;1.30;;;5.80;99.90;;;;;;6102286;23;20478;-89
2024/01/31 00:23:34;;;;;;;2.83;0.47;;;5.80;99.90;;;;;;6102229;23;20017;-90
2024/01/31 00:26:00;;;;;;;3.35;0.95;;;5.80;99.90;;;;;;6101857;23;20020;-89
2024/01/31 00:28:26;;;;;;;3.85;0.70;;;5.80;99.90;;;;;;6101783;23;20092;-89
2024/01/31 00:30:51;;;;;;;4.53;0.60;;;5.70;99.90;;;;;;6153393;23;20014;-89
2024/01/31 00:33:17;;;;;;;6.05;0.80;;;5.70;99.90;;;;;;6103351;23;20044;-89
2024/01/31 00:35:43;;;;;;;2.05;0.68;;;5.80;99.90;;;;;;6127781;23;20028;-89
2024/01/31 00:38:08;;;;;;;4.00;0.82;;;5.70;99.90;;;;;;6127179;23;20013;-90
2024/01/31 00:40:34;;;;;;;2.95;0.70;;;5.80;99.90;;;;;;6127054;23;20083;-89
2024/01/31 00:43:00;;;;;;;2.65;0.52;;;5.80;99.90;;;;;;6101966;23;20460;-90
2024/01/31 00:45:27;;;;;;;5.03;0.77;;;5.70;99.90;;;;;;6125574;23;20337;-89
2024/01/31 00:47:53;;;;;;;1.75;0.32;;;5.80;99.90;;;;;;6102359;23;20100;-89
2024/01/31 00:50:18;;;;;;;4.78;1.13;;;5.70;99.90;;;;;;6126611;23;20401;-89
2024/01/31 00:52:44;;;;;;;2.47;0.70;;;5.70;99.90;;;;;;6126287;23;20010;-89
2024/01/31 00:55:10;;;;;;;4.40;0.88;;;5.80;99.90;;;;;;6125628;23;20526;-90
2024/01/31 00:57:35;;;;;;;8.00;1.15;;;5.70;99.90;;;;;;6126232;23;20016;-90
2024/01/31 01:00:05;;;;;;;4.50;1.00;;;5.70;99.90;;;;;;6101562;23;20017;-89
2024/01/31 01:02:35;;;;;;;6.30;1.00;;;5.80;99.90;;;;;;6101866;23;20477;-89
2024/01/31 01:05:01;;;;;;;2.78;0.73;;;5.80;99.90;;;;;;6152291;23;20049;-89
2024/01/31 01:07:26;;;;;;;8.15;0.95;;;5.80;99.90;;;;;;6102378;23;20013;-89
2024/01/31 01:09:52;;;;;;;3.63;0.85;;;5.80;99.90;;;;;;6126070;23;20119;-89
2024/01/31 01:12:18;;;;;;;3.75;0.95;;;5.80;99.90;;;;;;6101764;23;20025;-89
2024/01/31 01:14:43;;;;;;;4.60;1.05;;;5.80;99.90;;;;;;6100664;23;20010;-89
2024/01/31 01:17:09;;;;;;;4.28;1.10;;;5.80;99.90;;;;;;6102126;23;20396;-89
2024/01/31 01:19:34;;;;;;;3.20;0.90;;;5.80;99.90;;;;;;6125704;23;20028;-89
2024/01/31 01:22:00;;;;;;;2.90;0.80;;;5.80;99.90;;;;;;6101545;23;20017;-89
2024/01/31 01:24:26;;;;;;;2.22;0.70;;;5.80;99.90;;;;;;6101458;23;20147;-89
2024/01/31 01:26:51;;;;;;;0.93;0.68;;;5.90;99.90;;;;;;6101040;23;20033;-89
2024/01/31 01:29:17;;;;;;;3.72;0.80;;;5.80;99.90;;;;;;6125881;23;20490;-89
2024/01/31 01:31:42;;;;;;;2.65;0.45;;;5.80;99.90;;;;;;6101257;23;20017;-89
2024/01/31 01:34:10;;;;;;;4.68;0.60;;;5.80;99.90;;;;;;6100945;23;20013;-89
2024/01/31 01:36:36;;;;;;;4.85;0.95;;;5.80;99.90;;;;;;6125986;23;20476;-90
2024/01/31 01:39:03;;;;;;;2.53;0.80;;;5.80;99.90;;;;;;6101753;23;20084;-89
2024/01/31 01:41:28;;;;;;;5.03;0.52;;;5.80;99.90;;;;;;6152084;23;20479;-89
2024/01/31 01:43:54;;;;;;;3.92;0.80;;;5.80;99.90;;;;;;6101201;23;20019;-89
2024/01/31 01:46:21;;;;;;;3.70;0.52;;;5.80;99.90;;;;;;6101274;23;20016;-89
2024/01/31 01:48:50;;;;;;;6.05;0.63;;;5.70;99.90;;;;;;6125856;23;20013;-89
2024/01/31 01:51:19;;;;;;;3.05;0.93;;;5.70;99.90;;;;;;6152006;23;20018;-89
2024/01/31 01:53:46;;;;;;;2.55;0.85;;;5.70;99.90;;;;;;6100834;23;20010;-89
2024/01/31 01:56:14;;;;;;;2.33;1.20;;;5.70;99.90;;;;;;6125741;23;20010;-89
2024/01/31 01:58:40;;;;;;;3.03;1.08;;;5.70;99.90;;;;;;6126008;23;20013;-90
2024/01/31 02:01:10;;;;;;;2.47;0.75;;;5.70;99.90;;;;;;6150825;23;20013;-89
2024/01/31 02:03:36;;;;;;;8.63;0.98;;;5.70;99.90;;;;;;6100414;23;20099;-89
2024/01/31 02:06:03;;;;;;;3.20;0.82;;;5.70;99.90;;;;;;6124486;23;20509;-89
2024/01/31 02:08:29;;;;;;;2.05;0.63;;;5.70;99.90;;;;;;6100821;23;20021;-89
2024/01/31 02:10:56;;;;;;;4.25;0.75;;;5.70;99.90;;;;;;6100569;23;20065;-88
2024/01/31 02:13:22;;;;;;;4.13;0.50;;;5.70;99.90;;;;;;6100753;23;20010;-89
2024/01/31 02:15:58;;;;;;;2.83;0.47;;;5.70;99.90;;;;;;6125300;23;20014;-89
2024/01/31 02:18:26;;;;;;;3.83;0.70;;;5.70;99.90;;;;;;6125683;23;20056;-90
2024/01/31 02:20:52;;;;;;;5.30;0.75;;;5.70;99.90;;;;;;6100938;23;20040;-89
2024/01/31 02:23:18;;;;;;;3.72;0.73;;;5.70;99.90;;;;;;6124778;23;20014;-89
2024/01/31 02:25:45;;;;;;;3.22;0.80;;;5.60;99.90;;;;;;6124303;23;20455;-89
2024/01/31 02:28:11;;;;;;;2.90;0.50;;;5.60;99.90;;;;;;6100840;23;20522;-90
2024/01/31 02:30:36;;;;;;;3.28;0.80;;;5.60;99.90;;;;;;6100643;23;20014;-89
2024/01/31 02:33:03;;;;;;;4.05;0.95;;;5.60;99.90;;;;;;6101078;23;20010;-88
2024/01/31 02:35:33;;;;;;;2.83;0.93;;;5.60;99.90;;;;;;6124602;23;20006;-90
2024/01/31 02:38:02;;;;;;;0.60;0.25;;;5.60;99.90;;;;;;6100994;23;20061;-89
2024/01/31 02:40:29;;;;;;;3.42;1.05;;;5.60;99.90;;;;;;6125172;23;20021;-89
2024/01/31 02:42:56;;;;;;;7.13;1.45;;;5.60;99.90;;;;;;6100986;23;20017;-89
2024/01/31 02:45:22;;;;;;;3.85;1.02;;;5.60;99.90;;;;;;6125464;23;20014;-89
2024/01/31 02:47:47;;;;;;;1.38;0.30;;;5.60;99.90;;;;;;6125553;23;20010;-89
2024/01/31 02:50:13;;;;;;;2.83;0.40;;;5.60;99.90;;;;;;6124562;23;20471;-89
2024/01/31 02:52:39;;;;;;;3.05;1.17;;;5.60;99.90;;;;;;6100682;23;20010;-89
2024/01/31 02:55:05;;;;;;;4.32;0.73;;;5.60;99.90;;;;;;6125298;23;20459;-89
2024/01/31 02:57:31;;;;;;;2.63;0.60;;;5.50;99.90;;;;;;6126440;23;20013;-89
2024/01/31 02:59:57;;;;;;;2.05;0.50;;;5.50;99.90;;;;;;6124897;23;20477;-89
2024/01/31 03:02:22;;;;;;;1.63;0.77;;;5.60;99.90;;;;;;6099820;23;20024;-89
2024/01/31 03:04:48;;;;;;;3.72;0.73;;;5.50;99.90;;;;;;6124682;23;20021;-89
2024/01/31 03:07:13;;;;;;;2.65;0.50;;;5.50;99.90;;;;;;6125538;23;20418;-89
2024/01/31 03:09:39;;;;;;;4.32;1.02;;;5.50;99.90;;;;;;6100841;23;20483;-89
2024/01/31 03:12:05;;;;;;;6.30;1.17;;;5.50;99.90;;;;;;6150746;23;20014;-89
2024/01/31 03:14:32;;;;;;;5.65;0.70;;;5.50;99.90;;;;;;6124797;23;20032;-88
2024/01/31 03:16:58;;;;;;;1.30;0.57;;;5.50;99.90;;;;;;6125495;23;20014;-89
2024/01/31 03:19:24;;;;;;;4.45;0.70;;;5.50;99.90;;;;;;6124240;23;20024;-89
2024/01/31 03:21:50;;;;;;;4.07;0.70;;;5.50;99.90;;;;;;6124908;23;20041;-89
2024/01/31 03:24:16;;;;;;;4.25;1.27;;;5.50;99.90;;;;;;6099659;23;20052;-89
2024/01/31 03:26:42;;;;;;;4.55;0.40;;;5.50;99.90;;;;;;6124222;23;20071;-89
2024/01/31 03:29:08;;;;;;;4.47;0.50;;;5.50;99.90;;;;;;6124359;23;20013;-89
2024/01/31 03:31:33;;;;;;;5.38;1.25;;;5.50;99.90;;;;;;6100443;23;20013;-89
2024/01/31 03:33:59;;;;;;;3.53;0.80;;;5.50;99.90;;;;;;6150837;23;20014;-89
2024/01/31 03:36:26;;;;;;;3.10;0.52;;;5.50;99.90;;;;;;6124881;23;20031;-89
2024/01/31 03:38:54;;;;;;;3.42;0.57;;;5.50;99.90;;;;;;6100702;23;20016;-89
2024/01/31 03:41:19;;;;;;;2.35;0.38;;;5.50;99.90;;;;;;6125426;23;20080;-89
2024/01/31 03:43:45;;;;;;;0.65;0.20;;;5.50;99.90;;;;;;6100715;23;20475;-89
2024/01/31 03:46:12;;;;;;;5.15;0.73;;;5.50;99.90;;;;;;6152243;23;20340;-89
2024/01/31 03:48:37;;;;;;;0.35;0.20;;;5.50;99.90;;;;;;6102386;23;20020;-89
2024/01/31 03:51:03;;;;;;;0.65;0.30;;;5.50;99.90;;;;;;6102273;23;20017;-89
2024/01/31 03:53:29;;;;;;;3.05;0.70;;;5.50;99.90;;;;;;6126153;23;20028;-89
2024/01/31 03:55:54;;;;;;;2.95;0.57;;;5.50;99.90;;;;;;6101959;23;20360;-89
2024/01/31 03:58:20;;;;;;;4.68;1.13;;;5.50;99.90;;;;;;6102599;23;20018;-89
2024/01/31 04:00:46;;;;;;;5.95;1.13;;;5.50;99.90;;;;;;6126372;23;20013;-89
2024/01/31 04:03:11;;;;;;;2.95;0.60;;;5.50;99.90;;;;;;6126537;23;20355;-89
2024/01/31 04:05:37;;;;;;;1.45;0.40;;;5.50;99.90;;;;;;6126255;23;20017;-89
2024/01/31 04:08:03;;;;;;;1.55;0.70;;;5.50;99.90;;;;;;6127091;23;20017;-89
2024/01/31 04:10:29;;;;;;;0.32;0.30;;;5.50;99.90;;;;;;6126410;23;20013;-90
2024/01/31 04:12:54;;;;;;;1.85;0.70;;;5.50;99.90;;;;;;6152905;23;20506;-89
2024/01/31 04:15:20;;;;;;;4.20;0.75;;;5.50;99.90;;;;;;6152352;23;20024;-89
2024/01/31 04:17:46;;;;;;;9.25;1.10;;;5.50;99.90;;;;;;6126895;23;20013;-89
2024/01/31 04:20:12;;;;;;;1.17;0.50;;;5.40;99.90;;;;;;6102198;23;20096;-89
2024/01/31 04:22:38;;;;;;;1.60;0.35;;;5.40;99.90;;;;;;6126193;23;20044;-89
2024/01/31 04:25:05;;;;;;;3.45;0.65;;;5.50;99.90;;;;;;6125973;23;20021;-89
2024/01/31 04:27:30;;;;;;;3.65;0.70;;;5.40;99.90;;;;;;6102557;23;20065;-89
2024/01/31 04:29:56;;;;;;;3.65;0.60;;;5.40;99.90;;;;;;6100965;23;20014;-89
2024/01/31 04:32:25;;;;;;;0.28;0.20;;;5.40;99.90;;;;;;6152886;23;20009;-89
2024/01/31 04:34:51;;;;;;;0.00;0.00;;;5.40;99.90;;;;;;6101972;23;20020;-89
2024/01/31 04:37:16;;;;;;;1.63;0.70;;;5.40;99.90;;;;;;6101963;23;20009;-89
2024/01/31 04:39:43;;;;;;;2.60;0.57;;;5.40;99.90;;;;;;6102201;23;20148;-89
2024/01/31 04:42:08;;;;;;;2.30;0.60;;;5.40;99.90;;;;;;6126167;23;20017;-89
2024/01/31 04:44:34;;;;;;;0.60;0.32;;;5.40;99.90;;;;;;6126673;23;20021;-89
2024/01/31 04:47:00;;;;;;;6.15;0.65;;;5.40;99.90;;;;;;6101317;23;20092;-89
2024/01/31 04:49:26;;;;;;;1.45;0.52;;;5.40;99.90;;;;;;6126119;23;20017;-89
2024/01/31 04:51:52;;;;;;;3.20;0.55;;;5.40;99.90;;;;;;6126047;23;20005;-89
2024/01/31 04:54:18;;;;;;;2.08;0.68;;;5.40;99.90;;;;;;6101306;23;20072;-89
2024/01/31 04:56:44;;;;;;;0.95;0.30;;;5.40;99.90;;;;;;6125656;23;20017;-90
2024/01/31 04:59:09;;;;;;;2.45;0.45;;;5.40;99.90;;;;;;6152498;23;20016;-90
2024/01/31 05:01:35;;;;;;;1.48;0.40;;;5.40;99.90;;;;;;6102364;23;20041;-89
2024/01/31 05:04:00;;;;;;;1.08;0.50;;;5.40;99.90;;;;;;6126399;23;20016;-90
2024/01/31 05:06:26;;;;;;;3.97;0.85;;;5.40;99.90;;;;;;6125704;23;20116;-89
2024/01/31 05:08:52;;;;;;;1.30;0.68;;;5.40;99.90;;;;;;6126769;23;20009;-89
2024/01/31 05:11:17;;;;;;;0.88;0.47;;;5.40;99.90;;;;;;6101897;23;20097;-89
2024/01/31 05:13:43;;;;;;;2.85;1.08;;;5.40;99.90;;;;;;6126323;23;20490;-90
2024/01/31 05:16:09;;;;;;;3.28;0.65;;;5.40;99.90;;;;;;6101700;23;20013;-90
2024/01/31 05:18:39;;;;;;;2.45;0.93;;;5.40;99.90;;;;;;6127912;23;20014;-89
2024/01/31 05:21:05;;;;;;;3.55;0.82;;;5.40;99.90;;;;;;6104230;23;20443;-89
2024/01/31 05:23:30;;;;;;;3.70;0.60;;;5.40;99.90;;;;;;6101921;23;20072;-89
2024/01/31 05:25:56;;;;;;;2.35;0.82;;;5.40;99.90;;;;;;6101055;23;20017;-89
2024/01/31 05:28:22;;;;;;;1.95;0.98;;;5.40;99.90;;;;;;6125707;23;20459;-89
2024/01/31 05:30:47;;;;;;;3.47;0.82;;;5.40;99.90;;;;;;6125820;23;20467;-89
2024/01/31 05:33:13;;;;;;;2.20;0.80;;;5.40;99.90;;;;;;6125669;23;20160;-89
2024/01/31 05:35:39;;;;;;;2.42;0.60;;;5.40;99.90;;;;;;6100999;23;20009;-89
2024/01/31 05:38:05;;;;;;;4.00;0.80;;;5.40;99.90;;;;;;6101527;23;20092;-89
2024/01/31 05:40:31;;;;;;;1.85;0.70;;;5.40;99.90;;;;;;6126171;23;20013;-89
2024/01/31 05:42:57;;;;;;;4.68;0.73;;;5.40;99.90;;;;;;6101112;23;20014;-90
2024/01/31 05:45:24;;;;;;;5.28;0.93;;;5.40;99.90;;;;;;6125843;23;20467;-89
2024/01/31 05:47:50;;;;;;;2.35;0.80;;;5.40;99.90;;;;;;6101690;23;20052;-89
2024/01/31 05:50:15;;;;;;;3.95;1.17;;;5.40;99.90;;;;;;6151653;23;20423;-89
2024/01/31 05:52:41;;;;;;;2.92;0.68;;;5.40;99.90;;;;;;6100869;23;20020;-89
2024/01/31 05:55:07;;;;;;;6.18;0.90;;;5.40;99.90;;;;;;6151183;23;20005;-90
2024/01/31 05:57:33;;;;;;;4.20;0.95;;;5.40;99.90;;;;;;6100804;23;20013;-89
2024/01/31 05:59:59;;;;;;;6.15;1.35;;;5.40;99.90;;;;;;6125535;23;20040;-89
2024/01/31 06:02:25;;;;;;;1.80;0.63;;;5.40;99.90;;;;;;6100930;23;20096;-89
2024/01/31 06:04:50;;;;;;;3.03;1.13;;;5.40;99.90;;;;;;6125389;23;20115;-90
2024/01/31 06:07:16;;;;;;;4.97;1.00;;;5.30;99.90;;;;;;6100986;23;20443;-89
2024/01/31 06:09:43;;;;;;;3.33;0.93;;;5.40;99.90;;;;;;6100867;23;20021;-90
2024/01/31 06:12:09;;;;;;;6.05;1.30;;;5.40;99.90;;;;;;6151576;23;20040;-90
2024/01/31 06:14:37;;;;;;;3.42;0.93;;;5.40;99.90;;;;;;6125454;23;20379;-90
2024/01/31 06:17:03;;;;;;;6.13;1.23;;;5.40;99.90;;;;;;6125239;23;20059;-90
2024/01/31 06:19:29;;;;;;;3.88;1.00;;;5.40;99.90;;;;;;6125191;23;20411;-90
2024/01/31 06:21:55;;;;;;;4.28;1.00;;;5.40;99.90;;;;;;6100822;23;20082;-90
2024/01/31 06:24:21;;;;;;;12.07;2.40;;;5.40;99.90;;;;;;6125300;23;20647;-90
2024/01/31 06:26:46;;;;;;;2.53;1.05;;;5.40;99.90;;;;;;6100185;23;20076;-90
2024/01/31 06:29:17;;;;;;;2.05;0.90;;;5.40;99.90;;;;;;6125653;23;20013;-90
2024/01/31 06:31:47;;;;;;;3.33;1.02;;;5.40;99.90;;;;;;6125604;23;20013;-89
2024/01/31 06:34:16;;;;;;;2.70;0.73;;;5.40;99.90;;;;;;6100295;23;20430;-90
2024/01/31 06:36:42;;;;;;;4.70;1.15;;;5.40;99.90;;;;;;6100551;23;20014;-90
2024/01/31 06:39:09;;;;;;;1.08;0.60;;;5.40;99.90;;;;;;6125724;23;20041;-90
2024/01/31 06:41:36;;;;;;;4.85;1.20;;;5.40;99.90;;;;;;6125701;23;20451;-90
2024/01/31 06:44:02;;;;;;;6.88;1.30;;;5.40;99.90;;;;;;6151820;23;20006;-89
2024/01/31 06:46:28;;;;;;;3.30;0.75;;;5.40;99.90;;;;;;6099544;23;20468;-90
2024/01/31 06:48:54;;;;;;;3.53;1.05;;;5.40;99.90;;;;;;6100326;23;20103;-89
2024/01/31 06:51:19;;;;;;;4.82;1.42;;;5.40;99.90;;;;;;6100298;23;20347;-90
2024/01/31 06:53:46;;;;;;;3.15;1.20;;;5.40;99.90;;;;;;6100348;23;20029;-89
2024/01/31 06:56:16;;;;;;;4.15;1.05;;;5.40;99.90;;;;;;6099704;23;20451;-89
2024/01/31 06:58:49;;;;;;;2.60;1.15;;;5.40;99.90;;;;;;6125692;23;20041;-90
2024/01/31 07:01:18;;;;;;;5.72;1.65;;;5.40;99.90;;;;;;6100822;23;20013;-89
2024/01/31 07:03:45;;;;;;;5.35;1.23;;;5.40;99.90;;;;;;6100769;23;20020;-89
2024/01/31 07:06:11;;;;;;;4.13;0.95;;;5.40;99.90;;;;;;6125115;23;20463;-89
2024/01/31 07:08:38;;;;;;;9.32;2.30;;;5.40;99.90;;;;;;6150036;23;20013;-90
2024/01/31 07:11:08;;;;;;;4.07;1.00;;;5.40;99.90;;;;;;6100704;23;20017;-89
2024/01/31 07:13:39;;;;;;;5.63;0.98;;;5.40;99.90;;;;;;6124914;23;20085;-89
2024/01/31 07:16:09;;;;;;;2.28;0.77;;;5.40;99.90;;;;;;6100666;23;20013;-90
2024/01/31 07:18:44;;;;;;;7.03;1.33;;;5.40;99.90;;;;;;6151433;23;20551;-90
2024/01/31 07:21:11;;;;;;;5.80;1.42;;;5.40;99.90;;;;;;6126486;23;20456;-89
2024/01/31 07:23:37;;;;;;;4.32;1.25;;;5.50;99.90;;;;;;6102814;23;20017;-90
2024/01/31 07:26:03;;;;;;;5.35;1.60;;;5.40;99.90;;;;;;6101783;23;20021;-90
2024/01/31 07:28:36;;;;;;;7.20;1.80;;;5.40;99.90;;;;;;6153017;23;20072;-90
2024/01/31 07:31:02;;;;;;;;;;;5.50;99.90;;;;;;6127245;23;20037;-89
2024/01/31 07:33:28;;;;;;;4.82;1.45;;;5.50;99.90;;;;;;6152921;23;19913;-90
2024/01/31 07:35:53;;;;;;;6.20;1.88;;;5.50;99.90;;;;;;6152265;23;20020;-90
2024/01/31 07:38:20;;;;;;;5.55;1.73;;;5.50;99.90;;;;;;6153245;23;20036;-90
2024/01/31 07:40:46;;;;;;;5.07;1.33;;;5.50;99.90;;;;;;6102611;23;20025;-90
2024/01/31 07:43:11;;;;;;;5.57;1.63;;;5.50;99.90;;;;;;6103050;23;20017;-89
2024/01/31 07:45:37;;;;;;;6.50;2.15;;;5.50;99.90;;;;;;6153390;23;20013;-89
2024/01/31 07:48:03;;;;;;;4.72;1.77;;;5.40;99.90;;;;;;6103842;23;20071;-89
2024/01/31 07:50:29;;;;;;;4.82;1.45;;;5.50;99.90;;;;;;6131126;23;20014;-89
2024/01/31 07:52:54;;;;;;;5.25;1.88;;;5.40;99.90;;;;;;6127602;23;20511;-89
2024/01/31 07:55:20;;;;;;;3.30;1.38;;;5.40;99.90;;;;;;6126059;23;20456;-89
2024/01/31 07:57:46;;;;;;;6.50;1.88;;;5.50;99.90;;;;;;6102026;23;20016;-89
2024/01/31 08:00:12;;;;;;;7.18;2.38;;;5.40;99.90;;;;;;6126352;23;20084;-90
2024/01/31 08:02:38;;;;;;;9.55;2.65;;;5.40;99.90;;;;;;6126688;23;20049;-89
2024/01/31 08:05:04;;;;;;;9.20;2.40;;;5.50;99.90;;;;;;6102359;23;20344;-89
2024/01/31 08:07:30;;;;;;;4.85;1.75;;;5.50;99.90;;;;;;6124822;23;20413;-89
2024/01/31 08:09:56;;;;;;;9.70;2.50;;;5.50;99.90;;;;;;6100827;23;20010;-89
2024/01/31 08:12:22;;;;;;;7.72;1.95;;;5.40;99.90;;;;;;6125805;23;20009;-89
2024/01/31 08:14:47;;;;;;;7.70;2.20;;;5.50;99.90;;;;;;6125525;23;20056;-89
2024/01/31 08:17:13;;;;;;;6.57;2.42;;;5.50;99.90;;;;;;6102056;23;20084;-89
2024/01/31 08:19:39;;;;;;;13.23;2.70;;;5.50;99.90;;;;;;6126264;23;20021;-89
2024/01/31 08:22:04;;;;;;;8.70;2.67;;;5.50;99.90;;;;;;6101833;23;20052;-89
2024/01/31 08:24:30;;;;;;;8.77;2.88;;;5.50;99.90;;;;;;6099167;23;20020;-89
2024/01/31 08:26:56;;;;;;;9.73;2.30;;;5.50;99.90;;;;;;6126473;23;20354;-89
2024/01/31 08:29:21;;;;;;;4.88;2.20;;;5.50;99.90;;;;;;6102199;23;20072;-89
2024/01/31 08:31:47;;;;;;;4.82;1.75;;;5.50;99.90;;;;;;6101634;23;20383;-89
2024/01/31 08:34:13;;;;;;;8.15;2.30;;;5.50;99.90;;;;;;6152278;23;20451;-89
2024/01/31 08:36:39;;;;;;;7.55;2.22;;;5.60;99.90;;;;;;6125055;23;20104;-89
2024/01/31 08:39:05;;;;;;;8.20;2.50;;;5.60;99.90;;;;;;6100485;23;20021;-89
2024/01/31 08:41:31;;;;;;;10.40;2.47;;;5.60;99.90;;;;;;6101098;23;20017;-89
2024/01/31 08:43:57;;;;;;;6.13;2.22;;;5.60;99.90;;;;;;6100897;23;20020;-89
2024/01/31 08:46:25;;;;;;;7.18;2.53;;;5.60;99.90;;;;;;6102061;23;20013;-89
2024/01/31 08:48:50;;;;;;;11.48;2.35;;;5.60;99.90;;;;;;6101817;23;20084;-89
2024/01/31 08:51:16;;;;;;;4.97;1.50;;;5.60;99.90;;;;;;6101326;23;20438;-89
2024/01/31 08:53:42;;;;;;;8.80;2.60;;;5.60;99.90;;;;;;6126356;23;20060;-89
2024/01/31 08:56:09;;;;;;;6.07;2.10;;;5.70;99.90;;;;;;6125784;23;20057;-89
2024/01/31 08:58:35;;;;;;;9.32;2.38;;;5.70;99.90;;;;;;6126339;23;20017;-89
2024/01/31 09:01:00;;;;;;;5.40;1.52;;;5.70;99.90;;;;;;6101750;23;20016;-89
2024/01/31 09:03:26;;;;;;;8.02;2.45;;;5.70;99.90;;;;;;6101604;23;20340;-89
2024/01/31 09:05:53;;;;;;;6.30;2.15;;;5.70;99.90;;;;;;6125131;23;20017;-90
2024/01/31 09:08:19;;;;;;;8.82;2.20;;;5.80;99.90;;;;;;6124729;23;20498;-89
2024/01/31 09:10:45;;;;;;;11.25;2.80;;;5.80;99.90;;;;;;6125182;23;20057;-89
2024/01/31 09:13:11;;;;;;;5.68;1.95;;;5.80;99.90;;;;;;6125321;23;20010;-88
2024/01/31 09:15:36;;;;;;;4.30;1.85;;;5.80;99.90;;;;;;6125618;23;20092;-89
2024/01/31 09:18:03;;;;;;;9.18;1.83;;;5.80;99.90;;;;;;6101368;23;20059;-89
2024/01/31 09:20:29;;;;;;;9.73;2.67;;;5.80;99.90;;;;;;6101180;23;20021;-89
2024/01/31 09:22:54;;;;;;;6.90;2.13;;;5.80;99.90;;;;;;6101768;23;20024;-90
2024/01/31 09:25:20;;;;;;;8.90;2.75;;;5.90;99.90;;;;;;6125552;23;20403;-89
2024/01/31 09:27:46;;;;;;;8.55;2.38;;;5.90;99.90;;;;;;6124986;23;20013;-89
2024/01/31 09:30:12;;;;;;;7.00;2.30;;;5.90;99.90;;;;;;6151700;23;20038;-90
2024/01/31 09:32:39;;;;;;;4.30;1.88;;;5.90;99.90;;;;;;6100474;23;20091;-88
2024/01/31 09:35:05;;;;;;;5.30;1.95;;;6.00;99.90;;;;;;6124824;23;20640;-89
2024/01/31 09:37:32;;;;;;;5.60;2.17;;;6.00;99.90;;;;;;6100984;23;20016;-90
2024/01/31 09:39:58;;;;;;;7.70;2.65;;;6.00;99.90;;;;;;6125740;23;20091;-89
2024/01/31 09:42:25;;;;;;;6.18;2.17;;;6.10;99.90;;;;;;6125544;23;20757;-89
2024/01/31 09:44:54;;;;;;;9.10;2.30;;;6.00;99.90;;;;;;6148996;23;20036;-88
2024/01/31 09:47:22;;;;;;;5.18;2.00;;;6.10;99.90;;;;;;6122184;23;20009;-88
2024/01/31 09:49:47;;;;;;;6.50;2.47;;;6.10;99.90;;;;;;6122812;23;20078;-88
2024/01/31 09:52:17;;;;;;;7.03;2.50;;;6.10;99.90;;;;;;6098036;23;20353;-88
2024/01/31 09:54:44;;;;;;;7.95;2.42;;;6.10;99.90;;;;;;6122133;23;20013;-88
2024/01/31 09:57:11;;;;;;;8.25;3.25;;;6.20;99.90;;;;;;6122536;23;20036;-89
2024/01/31 09:59:37;;;;;;;12.13;3.17;;;6.20;99.90;;;;;;6149216;23;20021;-90
2024/01/31 10:02:05;;;;;;;6.43;2.38;;;6.20;99.90;;;;;;6123136;23;20017;-90
2024/01/31 10:04:30;;;;;;;7.93;2.78;;;6.20;99.90;;;;;;6148730;23;20041;-90
2024/01/31 10:06:56;;;;;;;7.07;2.60;;;6.30;99.90;;;;;;6148595;23;20463;-90
2024/01/31 10:09:21;;;;;;;11.13;2.10;;;6.30;99.90;;;;;;6149875;23;20021;-89
2024/01/31 10:11:47;;;;;;;3.28;1.30;;;6.30;99.90;;;;;;6153873;23;20006;-89
2024/01/31 10:14:13;;;;;;;6.47;2.55;;;6.30;99.90;;;;;;6105528;23;20009;-89
2024/01/31 10:16:39;;;;;;;5.07;1.95;;;6.30;99.90;;;;;;6100722;23;20020;-89
2024/01/31 10:19:05;;;;;;;7.47;2.45;;;6.30;99.90;;;;;;6125422;23;20475;-89
2024/01/31 10:21:32;;;;;;;8.52;2.53;;;6.30;99.90;;;;;;6125323;23;20013;-89
2024/01/31 10:23:58;;;;;;;5.68;1.95;;;6.30;99.90;;;;;;6100857;23;20013;-90
2024/01/31 10:26:25;;;;;;;7.60;2.60;;;6.40;99.90;;;;;;6100902;23;20017;-89
2024/01/31 10:28:51;;;;;;;8.27;2.38;;;6.40;99.90;;;;;;6125413;23;20009;-90
2024/01/31 10:31:17;;;;;;;10.32;2.53;;;6.40;99.90;;;;;;6101002;23;20120;-89
2024/01/31 10:33:44;;;;;;;7.93;2.40;;;6.40;99.90;;;;;;6125167;23;20021;-90
2024/01/31 10:36:10;;;;;;;11.70;4.32;;;6.40;99.90;;;;;;6151455;23;20010;-89
2024/01/31 10:38:37;;;;;;;8.55;3.10;;;6.50;99.90;;;;;;6125926;23;20037;-89
2024/01/31 10:41:06;;;;;;;6.72;2.78;;;6.50;99.90;;;;;;6101194;23;20094;-89
2024/01/31 10:43:32;;;;;;;7.78;2.47;;;6.50;99.90;;;;;;6125547;23;20013;-89
2024/01/31 10:45:58;;;;;;;7.78;3.00;;;6.50;99.90;;;;;;6100397;23;20014;-90
2024/01/31 10:48:24;;;;;;;7.53;2.95;;;6.50;99.90;;;;;;6124595;23;20553;-89
2024/01/31 10:50:51;;;;;;;7.55;2.72;;;6.50;99.90;;;;;;6100882;23;20097;-88
2024/01/31 10:53:18;;;;;;;5.80;2.80;;;6.50;99.90;;;;;;6125846;23;20101;-89
2024/01/31 10:55:45;;;;;;;5.60;2.70;;;6.50;99.90;;;;;;6099950;23;20009;-89
2024/01/31 10:58:12;;;;;;;9.45;3.78;;;6.50;99.90;;;;;;6125601;23;20104;-89
2024/01/31 11:00:49;;;;;;;13.27;3.95;;;6.50;99.90;;;;;;6100771;23;20020;-89
2024/01/31 11:03:16;;;;;;;6.70;2.75;;;6.50;99.90;;;;;;6100633;23;20092;-89
2024/01/31 11:05:42;;;;;;;9.00;3.53;;;6.50;99.90;;;;;;6124926;23;20501;-89
2024/01/31 11:08:18;;;;;;;8.57;3.05;;;6.50;99.90;;;;;;6100702;23;20088;-88
2024/01/31 11:10:44;;;;;;;8.93;3.67;;;6.60;99.90;;;;;;6125155;23;20014;-89
2024/01/31 11:13:10;;;;;;;6.93;3.20;;;6.60;99.90;;;;;;6100799;23;20022;-89
2024/01/31 11:15:36;;;;;;;8.25;4.32;;;6.60;99.90;;;;;;6124861;23;20009;-89
2024/01/31 11:18:09;;;;;;;9.65;4.57;;;6.60;99.90;;;;;;6125098;23;20363;-89
2024/01/31 11:20:38;;;;;;;10.10;3.80;;;6.60;99.90;;;;;;6125311;23;20025;-89
2024/01/31 11:23:05;;;;;;;10.77;4.57;;;6.60;99.90;;;;;;6125375;23;20153;-88
2024/01/31 11:25:37;;;;;;;8.32;3.40;;;6.60;99.90;;;;;;6100285;23;20013;-89
2024/01/31 11:28:08;;;;;;;6.43;2.55;;;6.60;99.90;;;;;;6124294;23;20028;-89
2024/01/31 11:30:34;;;;;;;7.43;2.75;;;6.70;99.90;;;;;;6100559;23;20049;-90
2024/01/31 11:33:02;;;;;;;4.55;2.25;;;6.70;99.90;;;;;;6100540;23;20022;-88
2024/01/31 11:35:28;;;;;;;6.70;2.75;;;6.70;99.90;;;;;;6124449;23;20009;-89
2024/01/31 11:37:56;;;;;;;8.88;3.28;;;6.70;99.90;;;;;;6100472;23;20521;-90
2024/01/31 11:40:22;;;;;;;4.80;2.35;;;6.80;99.90;;;;;;6100692;23;20052;-89
2024/01/31 11:42:48;;;;;;;7.22;2.85;;;6.80;99.90;;;;;;6125198;23;20010;-90
2024/01/31 11:45:15;;;;;;;12.32;3.65;;;6.90;99.90;;;;;;6100214;23;20472;-90
2024/01/31 11:47:41;;;;;;;9.38;3.25;;;6.90;99.90;;;;;;6151257;23;20017;-90
2024/01/31 11:50:08;;;;;;;8.70;3.42;;;7.00;99.90;;;;;;6124862;23;20486;-90
2024/01/31 11:52:33;;;;;;;9.80;3.70;;;7.00;99.90;;;;;;6100625;23;20101;-90
2024/01/31 11:54:59;;;;;;;11.77;3.67;;;7.00;99.90;;;;;;6099926;23;20702;-90
2024/01/31 11:57:26;;;;;;;8.80;3.47;;;7.10;99.90;;;;;;6125358;23;20010;-90
2024/01/31 11:59:53;;;;;;;8.23;3.45;;;7.10;99.90;;;;;;6100293;23;20024;-89
2024/01/31 12:02:19;;;;;;;7.95;3.50;;;7.10;99.90;;;;;;6151048;23;20036;-91
2024/01/31 12:04:55;;;;;;;8.60;3.88;;;7.20;99.90;;;;;;6100082;23;20340;-89
2024/01/31 12:07:21;;;;;;;8.32;3.83;;;7.20;99.90;;;;;;6101437;23;20014;-90
2024/01/31 12:09:47;;;;;;;10.38;3.75;;;7.20;99.90;;;;;;6102035;23;20048;-89
2024/01/31 12:12:13;;;;;;;7.78;3.03;;;7.20;99.90;;;;;;6102584;23;20009;-89
2024/01/31 12:14:40;;;;;;;7.63;3.28;;;7.20;99.90;;;;;;6126427;23;20005;-89
2024/01/31 12:17:26;;;;;;;10.65;4.72;;;7.20;99.90;;;;;;6126948;23;20021;-90
2024/01/31 12:20:10;;;;;;;7.88;3.05;;;7.30;99.90;;;;;;6126825;23;20018;-90
2024/01/31 12:22:37;;;;;;;6.72;3.00;;;7.20;99.90;;;;;;6103187;23;20329;-90
2024/01/31 12:25:04;;;;;;;10.52;4.25;;;7.20;99.90;;;;;;6105549;23;20020;-90
2024/01/31 12:27:30;;;;;;;10.00;3.65;;;7.30;99.90;;;;;;6130939;23;20387;-90
2024/01/31 12:29:56;;;;;;;8.32;3.25;;;7.30;99.90;;;;;;6102032;23;20489;-90
2024/01/31 12:32:23;;;;;;;10.55;4.15;;;7.30;99.90;;;;;;6101973;23;20028;-90
2024/01/31 12:34:48;;;;;;;8.95;4.13;;;7.30;99.90;;;;;;6126063;23;20014;-90
2024/01/31 12:37:14;;;;;;;7.85;4.05;;;7.40;99.90;;;;;;6125871;23;20017;-90
2024/01/31 12:39:40;;;;;;;8.75;4.28;;;7.30;99.90;;;;;;6126943;23;20060;-90
2024/01/31 12:42:06;;;;;;;8.43;3.63;;;7.30;99.90;;;;;;6126551;23;20049;-90
2024/01/31 12:44:32;;;;;;;8.75;3.97;;;7.40;99.90;;;;;;6152920;23;20655;-90
2024/01/31 12:46:58;;;;;;;9.68;4.55;;;7.40;99.90;;;;;;6101417;23;20025;-90
2024/01/31 12:49:24;;;;;;;8.02;3.83;;;7.40;99.90;;;;;;6125709;23;20013;-91
2024/01/31 12:51:50;;;;;;;5.65;2.85;;;7.40;99.90;;;;;;6123875;23;20045;-90
2024/01/31 12:54:16;;;;;;;8.80;3.83;;;7.40;99.90;;;;;;6123390;23;20009;-89